Terminal Aerodrome Forecast
Issued by NWS Billings, MT

Home | Current Version | Previous Version | Text Only | Print | Product List | Glossary On
Versions: 1 2 3 4 5 6 7 8 9 10 11 12 13 14 15
000
FTUS45 KBYZ 250536
TAFSHR
TAF
KSHR 250536Z 2506/2606 VRB04KT P6SM SCT120
     FM252100 12011G17KT P6SM VCSH BKN070 BKN100=

USA.gov is the U.S. government's official web portal to all federal, state and local government web resources and services.